Time,TemperatureF,DewpointF,PressureIn,WindDirection,WindDirectionDegrees,WindSpeedMPH,WindSpeedGustMPH,Humidity,HourlyPrecipIn,Conditions,Clouds,dailyrainin,SoftwareType,DateUTC
2013-05-27 00:02:00,54.1,47.8,30.27,NE,45,0.0,0.0,79,0.00,,,0.00,pywws,2013-05-27 04:02:00,
2013-05-27 00:07:00,53.6,47.6,30.27,SW,225,0.0,0.0,80,0.00,,,0.00,pywws,2013-05-27 04:07:00,
2013-05-27 00:09:00,53.6,47.6,30.27,SW,225,0.0,0.7,80,0.00,,,0.00,pywws,2013-05-27 04:09:00,
2013-05-27 00:10:00,53.6,47.9,30.27,SW,225,0.0,0.7,81,0.00,,,0.00,pywws,2013-05-27 04:10:00,
2013-05-27 00:16:00,53.6,47.9,30.27,SW,225,0.0,0.7,81,0.00,,,0.00,pywws,2013-05-27 04:16:00,
2013-05-27 00:23:00,53.6,47.6,30.27,SW,225,0.0,0.0,80,0.00,,,0.00,pywws,2013-05-27 04:23:00,
2013-05-27 00:29:00,53.1,47.7,30.27,SW,225,0.0,0.0,82,0.00,,,0.00,pywws,2013-05-27 04:29:00,
2013-05-27 00:35:00,52.9,47.5,30.27,SW,225,0.0,0.0,82,0.00,,,0.00,pywws,2013-05-27 04:35:00,
2013-05-27 00:41:00,52.7,47.4,30.27,SW,225,0.0,0.0,82,0.00,,,0.00,pywws,2013-05-27 04:41:00,
2013-05-27 00:47:00,52.7,47.7,30.27,SW,225,0.0,0.0,83,0.00,,,0.00,pywws,2013-05-27 04:47:00,
2013-05-27 00:53:00,52.5,47.5,30.27,SW,225,0.0,0.0,83,0.00,,,0.00,pywws,2013-05-27 04:53:00,
2013-05-27 00:58:00,52.3,47.6,30.27,SW,225,0.0,0.0,84,0.00,,,0.00,pywws,2013-05-27 04:58:00,
2013-05-27 01:04:00,51.8,47.4,30.27,SW,225,0.0,0.0,85,0.00,,,0.00,pywws,2013-05-27 05:04:00,
2013-05-27 01:10:00,51.8,47.4,30.27,SW,225,0.7,1.6,85,0.00,,,0.00,pywws,2013-05-27 05:10:00,
2013-05-27 01:15:00,52.0,47.9,30.27,SW,225,0.0,0.7,86,0.00,,,0.00,pywws,2013-05-27 05:15:00,
2013-05-27 01:22:00,52.0,47.6,30.27,SW,225,0.0,0.0,85,0.00,,,0.00,pywws,2013-05-27 05:22:00,
2013-05-27 01:28:00,51.6,47.6,30.27,SW,225,0.0,0.0,86,0.00,,,0.00,pywws,2013-05-27 05:28:00,
2013-05-27 01:35:00,51.1,47.3,30.27,SW,225,0.0,0.0,87,0.00,,,0.00,pywws,2013-05-27 05:35:00,
2013-05-27 01:41:00,50.9,47.5,30.27,SW,225,0.0,0.0,88,0.00,,,0.00,pywws,2013-05-27 05:41:00,
2013-05-27 01:46:00,50.5,47.1,30.27,SW,225,0.0,1.6,88,0.00,,,0.00,pywws,2013-05-27 05:46:00,
2013-05-27 01:52:00,50.9,47.8,30.27,SW,225,0.0,0.0,89,0.00,,,0.00,pywws,2013-05-27 05:52:00,
2013-05-27 01:58:00,50.9,47.8,30.26,SW,225,0.0,0.0,89,0.00,,,0.00,pywws,2013-05-27 05:58:00,
2013-05-27 02:04:00,50.9,47.8,30.26,SW,225,0.0,0.0,89,0.00,,,0.00,pywws,2013-05-27 06:04:00,
2013-05-27 02:10:00,50.5,47.7,30.26,NE,45,0.0,0.0,90,0.00,,,0.00,pywws,2013-05-27 06:10:00,
2013-05-27 02:15:00,50.2,47.7,30.26,West,270,0.0,0.7,91,0.00,,,0.00,pywws,2013-05-27 06:15:00,
2013-05-27 02:21:00,50.4,47.8,30.27,SW,225,0.0,0.0,91,0.00,,,0.00,pywws,2013-05-27 06:21:00,
2013-05-27 02:26:00,50.4,48.1,30.26,SW,225,0.0,0.7,92,0.00,,,0.00,pywws,2013-05-27 06:26:00,
2013-05-27 02:32:00,50.2,47.9,30.26,SW,225,0.0,0.0,92,0.00,,,0.00,pywws,2013-05-27 06:32:00,
2013-05-27 02:40:00,50.2,48.2,30.26,SW,225,0.0,0.0,93,0.00,,,0.00,pywws,2013-05-27 06:40:00,
2013-05-27 02:46:00,50.0,48.1,30.26,NE,45,0.0,0.0,93,0.00,,,0.00,pywws,2013-05-27 06:46:00,
2013-05-27 02:52:00,49.6,48.0,30.26,NE,45,0.0,0.0,94,0.00,,,0.00,pywws,2013-05-27 06:52:00,
2013-05-27 02:58:00,49.3,47.6,30.26,NE,45,0.0,0.7,94,0.00,,,0.00,pywws,2013-05-27 06:58:00,
2013-05-27 03:04:00,49.1,47.7,30.27,NE,45,0.0,0.0,95,0.00,,,0.00,pywws,2013-05-27 07:04:00,
2013-05-27 03:10:00,48.9,47.6,30.27,West,270,0.7,1.6,95,0.00,,,0.00,pywws,2013-05-27 07:10:00,
2013-05-27 03:15:00,49.3,47.9,30.26,West,270,0.7,1.6,95,0.00,,,0.00,pywws,2013-05-27 07:15:00,
2013-05-27 03:21:00,49.5,48.1,30.26,South,180,0.0,0.7,95,0.00,,,0.00,pywws,2013-05-27 07:21:00,
2013-05-27 03:26:00,49.8,48.4,30.27,West,270,0.0,0.0,95,0.00,,,0.00,pywws,2013-05-27 07:26:00,
2013-05-27 03:32:00,49.5,47.8,30.27,West,270,0.0,0.0,94,0.00,,,0.00,pywws,2013-05-27 07:32:00,
2013-05-27 03:38:00,49.3,47.6,30.26,West,270,0.0,0.0,94,0.00,,,0.00,pywws,2013-05-27 07:38:00,
2013-05-27 03:44:00,48.9,47.3,30.26,West,270,0.0,0.0,94,0.00,,,0.00,pywws,2013-05-27 07:44:00,
2013-05-27 03:50:00,48.6,46.9,30.26,West,270,0.0,0.0,94,0.00,,,0.00,pywws,2013-05-27 07:50:00,
2013-05-27 03:56:00,48.4,46.7,30.26,West,270,0.0,0.0,94,0.00,,,0.00,pywws,2013-05-27 07:56:00,
2013-05-27 04:05:00,48.4,46.7,30.26,West,270,0.0,0.7,94,0.00,,,0.00,pywws,2013-05-27 08:05:00,
2013-05-27 04:10:00,48.4,47.0,30.26,West,270,0.0,0.0,95,0.00,,,0.00,pywws,2013-05-27 08:10:00,
2013-05-27 04:16:00,48.2,46.8,30.26,West,270,0.0,0.0,95,0.00,,,0.00,pywws,2013-05-27 08:16:00,
2013-05-27 04:22:00,47.8,46.8,30.26,West,270,0.0,0.0,96,0.00,,,0.00,pywws,2013-05-27 08:22:00,
2013-05-27 04:30:00,47.8,46.8,30.27,West,270,0.0,0.0,96,0.00,,,0.00,pywws,2013-05-27 08:30:00,
2013-05-27 04:37:00,47.8,46.8,30.26,West,270,0.0,0.0,96,0.00,,,0.00,pywws,2013-05-27 08:37:00,
2013-05-27 04:42:00,48.0,46.9,30.26,SW,225,0.7,1.6,96,0.00,,,0.00,pywws,2013-05-27 08:42:00,
2013-05-27 04:48:00,48.4,47.0,30.26,SW,225,0.0,0.0,95,0.00,,,0.00,pywws,2013-05-27 08:48:00,
2013-05-27 04:54:00,48.4,47.0,30.26,SW,225,0.0,0.0,95,0.00,,,0.00,pywws,2013-05-27 08:54:00,
2013-05-27 04:59:00,48.2,46.8,30.27,NE,45,0.0,0.0,95,0.00,,,0.00,pywws,2013-05-27 08:59:00,
2013-05-27 05:06:00,47.8,46.8,30.27,NE,45,0.0,0.0,96,0.00,,,0.00,pywws,2013-05-27 09:06:00,
2013-05-27 05:11:00,47.7,46.9,30.27,NE,45,0.0,0.0,97,0.00,,,0.00,pywws,2013-05-27 09:11:00,
2013-05-27 05:18:00,47.5,46.7,30.27,NE,45,0.0,0.0,97,0.00,,,0.00,pywws,2013-05-27 09:18:00,
2013-05-27 05:24:00,47.3,46.5,30.26,NE,45,0.0,0.0,97,0.00,,,0.00,pywws,2013-05-27 09:24:00,
2013-05-27 05:30:00,47.5,46.7,30.27,NE,45,0.0,0.0,97,0.00,,,0.00,pywws,2013-05-27 09:30:00,
2013-05-27 05:35:00,47.5,46.7,30.27,South,180,0.0,0.0,97,0.00,,,0.00,pywws,2013-05-27 09:35:00,
2013-05-27 05:41:00,47.3,46.5,30.26,South,180,0.0,0.0,97,0.00,,,0.00,pywws,2013-05-27 09:41:00,
2013-05-27 05:47:00,47.3,46.5,30.27,South,180,0.0,0.0,97,0.00,,,0.00,pywws,2013-05-27 09:47:00,
2013-05-27 05:52:00,47.3,46.8,30.27,South,180,0.0,0.7,98,0.00,,,0.00,pywws,2013-05-27 09:52:00,
2013-05-27 05:57:00,47.3,46.8,30.27,South,180,0.0,0.0,98,0.00,,,0.00,pywws,2013-05-27 09:57:00,
2013-05-27 06:09:00,47.3,46.8,30.27,South,180,0.0,0.0,98,0.00,,,0.00,pywws,2013-05-27 10:09:00,
2013-05-27 06:15:00,47.1,46.6,30.27,South,180,0.0,0.0,98,0.00,,,0.00,pywws,2013-05-27 10:15:00,
2013-05-27 06:21:00,47.1,46.6,30.28,South,180,0.0,0.0,98,0.00,,,0.00,pywws,2013-05-27 10:21:00,
2013-05-27 06:30:00,47.3,46.8,30.28,NW,315,0.0,0.7,98,0.00,,,0.00,pywws,2013-05-27 10:30:00,
2013-05-27 06:35:00,47.7,47.1,30.29,South,180,0.0,0.7,98,0.00,,,0.00,pywws,2013-05-27 10:35:00,
2013-05-27 06:41:00,48.0,47.8,30.29,West,270,0.7,1.6,99,0.00,,,0.00,pywws,2013-05-27 10:41:00,
2013-05-27 06:46:00,48.2,47.7,30.29,West,270,0.0,0.0,98,0.00,,,0.00,pywws,2013-05-27 10:46:00,
2013-05-27 06:52:00,48.4,47.8,30.29,West,270,0.0,0.0,98,0.00,,,0.00,pywws,2013-05-27 10:52:00,
2013-05-27 06:58:00,48.4,47.8,30.30,West,270,0.0,0.0,98,0.00,,,0.00,pywws,2013-05-27 10:58:00,
2013-05-27 07:06:00,48.6,48.3,30.30,East,90,0.0,0.0,99,0.00,,,0.00,pywws,2013-05-27 11:06:00,
2013-05-27 07:11:00,48.9,48.7,30.30,North,0,0.0,0.0,99,0.00,,,0.00,pywws,2013-05-27 11:11:00,
2013-05-27 07:17:00,49.3,49.0,30.30,NE,45,0.0,0.7,99,0.00,,,0.00,pywws,2013-05-27 11:17:00,
2013-05-27 07:22:00,49.6,49.4,30.30,NE,45,0.0,0.0,99,0.00,,,0.00,pywws,2013-05-27 11:22:00,
2013-05-27 07:28:00,50.2,49.9,30.30,East,90,0.0,0.7,99,0.00,,,0.00,pywws,2013-05-27 11:28:00,
2013-05-27 07:34:00,50.7,50.4,30.30,ESE,112,1.6,3.1,99,0.00,,,0.00,pywws,2013-05-27 11:34:00,
2013-05-27 07:39:00,51.4,51.2,30.30,South,180,2.2,4.5,99,0.00,,,0.00,pywws,2013-05-27 11:39:00,
2013-05-27 07:45:00,52.3,51.5,30.30,SE,135,0.0,0.7,97,0.00,,,0.00,pywws,2013-05-27 11:45:00,
2013-05-27 07:50:00,53.1,51.7,30.30,East,90,1.6,3.1,95,0.00,,,0.00,pywws,2013-05-27 11:50:00,
2013-05-27 07:56:00,53.8,51.5,30.30,East,90,0.0,0.7,92,0.00,,,0.00,pywws,2013-05-27 11:56:00,
2013-05-27 08:02:00,54.3,52.0,30.30,East,90,1.6,2.2,92,0.00,,,0.00,pywws,2013-05-27 12:02:00,
2013-05-27 08:07:00,55.9,52.1,30.30,NE,45,2.2,3.1,87,0.00,,,0.00,pywws,2013-05-27 12:07:00,
2013-05-27 08:13:00,57.2,51.8,30.30,NE,45,2.2,3.8,82,0.00,,,0.00,pywws,2013-05-27 12:13:00,
2013-05-27 08:18:00,58.1,51.6,30.30,SW,225,0.0,1.6,79,0.00,,,0.00,pywws,2013-05-27 12:18:00,
2013-05-27 08:24:00,59.9,52.3,30.30,South,180,0.7,1.6,76,0.00,,,0.00,pywws,2013-05-27 12:24:00,
2013-05-27 08:30:00,61.3,52.2,30.30,NE,45,0.0,1.6,72,0.00,,,0.00,pywws,2013-05-27 12:30:00,
2013-05-27 08:35:00,63.1,52.0,30.30,SW,225,0.7,2.2,67,0.00,,,0.00,pywws,2013-05-27 12:35:00,
2013-05-27 08:41:00,63.9,51.9,30.30,SW,225,0.7,2.2,65,0.00,,,0.00,pywws,2013-05-27 12:41:00,
2013-05-27 08:46:00,64.4,52.4,30.29,West,270,0.7,2.2,65,0.00,,,0.00,pywws,2013-05-27 12:46:00,
2013-05-27 08:52:00,64.8,52.7,30.30,West,270,1.6,3.1,65,0.00,,,0.00,pywws,2013-05-27 12:52:00,
2013-05-27 08:58:00,65.3,53.2,30.30,SE,135,1.6,2.2,65,0.00,,,0.00,pywws,2013-05-27 12:58:00,
2013-05-27 09:03:00,65.8,52.9,30.29,East,90,3.8,6.0,63,0.00,,,0.00,pywws,2013-05-27 13:03:00,
2013-05-27 09:09:00,66.4,53.4,30.30,East,90,2.2,3.1,63,0.00,,,0.00,pywws,2013-05-27 13:09:00,
2013-05-27 09:14:00,67.6,53.7,30.29,SW,225,0.7,1.6,61,0.00,,,0.00,pywws,2013-05-27 13:14:00,
2013-05-27 09:20:00,68.5,53.6,30.29,SE,135,3.1,5.4,59,0.00,,,0.00,pywws,2013-05-27 13:20:00,
2013-05-27 09:26:00,68.2,52.8,30.29,East,90,1.6,4.5,58,0.00,,,0.00,pywws,2013-05-27 13:26:00,
2013-05-27 09:31:00,68.4,53.5,30.29,East,90,0.7,4.5,59,0.00,,,0.00,pywws,2013-05-27 13:31:00,
2013-05-27 09:37:00,69.1,53.2,30.29,SE,135,5.4,7.6,57,0.00,,,0.00,pywws,2013-05-27 13:37:00,
2013-05-27 09:42:00,69.6,54.2,30.29,SE,135,1.6,3.1,58,0.00,,,0.00,pywws,2013-05-27 13:42:00,
2013-05-27 09:48:00,71.6,54.1,30.29,NE,45,3.8,6.0,54,0.00,,,0.00,pywws,2013-05-27 13:48:00,
2013-05-27 09:54:00,72.0,53.9,30.29,East,90,1.6,2.2,53,0.00,,,0.00,pywws,2013-05-27 13:54:00,
2013-05-27 09:59:00,73.4,54.7,30.29,NE,45,0.7,1.6,52,0.00,,,0.00,pywws,2013-05-27 13:59:00,
2013-05-27 10:05:00,73.9,54.1,30.29,East,90,2.2,4.5,50,0.00,,,0.00,pywws,2013-05-27 14:05:00,
2013-05-27 10:10:00,72.9,53.7,30.29,East,90,2.2,4.5,51,0.00,,,0.00,pywws,2013-05-27 14:10:00,
2013-05-27 10:16:00,73.2,54.0,30.29,SE,135,3.8,6.9,51,0.00,,,0.00,pywws,2013-05-27 14:16:00,
2013-05-27 10:22:00,73.6,53.8,30.28,ENE,68,3.1,4.5,50,0.00,,,0.00,pywws,2013-05-27 14:22:00,
2013-05-27 10:27:00,73.6,53.2,30.28,NE,45,4.5,6.0,49,0.00,,,0.00,pywws,2013-05-27 14:27:00,
2013-05-27 10:33:00,73.6,53.8,30.28,SE,135,3.1,5.4,50,0.00,,,0.00,pywws,2013-05-27 14:33:00,
2013-05-27 10:38:00,74.3,54.4,30.28,East,90,3.1,6.0,50,0.00,,,0.00,pywws,2013-05-27 14:38:00,
2013-05-27 10:44:00,75.0,54.5,30.28,East,90,3.1,4.5,49,0.00,,,0.00,pywws,2013-05-27 14:44:00,
2013-05-27 10:50:00,75.7,54.1,30.27,SE,135,0.7,2.2,47,0.00,,,0.00,pywws,2013-05-27 14:50:00,
2013-05-27 10:55:00,76.3,54.6,30.27,North,0,2.2,3.8,47,0.00,,,0.00,pywws,2013-05-27 14:55:00,
2013-05-27 11:01:00,77.5,56.3,30.27,SE,135,3.1,5.4,48,0.00,,,0.00,pywws,2013-05-27 15:01:00,
2013-05-27 11:06:00,77.5,55.1,30.27,North,0,1.6,3.1,46,0.00,,,0.00,pywws,2013-05-27 15:06:00,
2013-05-27 11:12:00,77.9,56.0,30.27,North,0,1.6,2.2,47,0.00,,,0.00,pywws,2013-05-27 15:12:00,
2013-05-27 11:18:00,79.3,55.5,30.27,South,180,1.6,3.8,44,0.00,,,0.00,pywws,2013-05-27 15:18:00,
2013-05-27 11:23:00,79.0,54.6,30.27,NE,45,2.2,3.1,43,0.00,,,0.00,pywws,2013-05-27 15:23:00,
2013-05-27 11:29:00,79.2,55.3,30.27,East,90,1.6,2.2,44,0.00,,,0.00,pywws,2013-05-27 15:29:00,
2013-05-27 11:34:00,80.2,55.7,30.27,SE,135,0.7,3.1,43,0.00,,,0.00,pywws,2013-05-27 15:34:00,
2013-05-27 11:40:00,79.9,55.4,30.27,South,180,1.6,2.2,43,0.00,,,0.00,pywws,2013-05-27 15:40:00,
2013-05-27 11:46:00,80.6,54.7,30.27,SE,135,1.6,3.1,41,0.00,,,0.00,pywws,2013-05-27 15:46:00,
2013-05-27 11:51:00,80.1,54.9,30.27,SW,225,2.2,6.9,42,0.00,,,0.00,pywws,2013-05-27 15:51:00,
2013-05-27 11:57:00,80.2,55.7,30.26,East,90,2.2,3.8,43,0.00,,,0.00,pywws,2013-05-27 15:57:00,
2013-05-27 12:02:00,80.6,54.7,30.26,SE,135,2.2,4.5,41,0.00,,,0.00,pywws,2013-05-27 16:02:00,
2013-05-27 12:08:00,81.3,56.0,30.26,North,0,3.8,6.9,42,0.00,,,0.00,pywws,2013-05-27 16:08:00,
2013-05-27 12:14:00,80.8,54.9,30.26,East,90,3.1,4.5,41,0.00,,,0.00,pywws,2013-05-27 16:14:00,
2013-05-27 12:19:00,81.0,55.0,30.26,East,90,2.2,3.8,41,0.00,,,0.00,pywws,2013-05-27 16:19:00,
2013-05-27 12:25:00,80.1,55.5,30.26,South,180,2.2,5.4,43,0.00,,,0.00,pywws,2013-05-27 16:25:00,
2013-05-27 12:30:00,80.2,55.0,30.26,SW,225,2.2,4.5,42,0.00,,,0.00,pywws,2013-05-27 16:30:00,
2013-05-27 12:36:00,81.0,55.0,30.26,East,90,4.5,7.6,41,0.00,,,0.00,pywws,2013-05-27 16:36:00,
2013-05-27 12:42:00,81.1,55.2,30.26,South,180,1.6,3.8,41,0.00,,,0.00,pywws,2013-05-27 16:42:00,
2013-05-27 12:47:00,81.9,55.8,30.26,ESE,112,2.2,5.4,41,0.00,,,0.00,pywws,2013-05-27 16:47:00,
2013-05-27 12:53:00,81.9,56.5,30.26,SW,225,3.1,6.0,42,0.00,,,0.00,pywws,2013-05-27 16:53:00,
2013-05-27 12:58:00,81.9,54.4,30.26,South,180,4.5,8.3,39,0.00,,,0.00,pywws,2013-05-27 16:58:00,
2013-05-27 13:04:00,81.7,55.7,30.25,ESE,112,4.5,6.0,41,0.00,,,0.00,pywws,2013-05-27 17:04:00,
2013-05-27 13:10:00,81.9,55.8,30.25,SE,135,1.6,2.2,41,0.00,,,0.00,pywws,2013-05-27 17:10:00,
2013-05-27 13:15:00,82.2,56.8,30.25,NE,45,1.6,3.1,42,0.00,,,0.00,pywws,2013-05-27 17:15:00,
2013-05-27 13:21:00,81.9,55.1,30.25,ENE,68,4.5,8.3,40,0.00,,,0.00,pywws,2013-05-27 17:21:00,
2013-05-27 13:26:00,82.4,57.0,30.25,North,0,1.6,2.2,42,0.00,,,0.00,pywws,2013-05-27 17:26:00,
2013-05-27 13:32:00,82.6,57.8,30.24,NNW,338,1.6,3.1,43,0.00,,,0.00,pywws,2013-05-27 17:32:00,
2013-05-27 13:38:00,82.4,56.3,30.24,South,180,4.5,7.6,41,0.00,,,0.00,pywws,2013-05-27 17:38:00,
2013-05-27 13:43:00,82.6,56.5,30.24,SW,225,3.1,4.5,41,0.00,,,0.00,pywws,2013-05-27 17:43:00,
2013-05-27 13:49:00,82.4,57.6,30.24,East,90,3.8,7.6,43,0.00,,,0.00,pywws,2013-05-27 17:49:00,
2013-05-27 13:54:00,82.6,57.1,30.24,SW,225,3.8,6.9,42,0.00,,,0.00,pywws,2013-05-27 17:54:00,
2013-05-27 14:00:00,82.9,57.5,30.24,NW,315,3.1,6.0,42,0.00,,,0.00,pywws,2013-05-27 18:00:00,
2013-05-27 14:06:00,83.8,57.6,30.24,South,180,3.1,3.8,41,0.00,,,0.00,pywws,2013-05-27 18:06:00,
2013-05-27 14:11:00,84.7,56.3,30.24,ESE,112,3.1,5.4,38,0.00,,,0.00,pywws,2013-05-27 18:11:00,
2013-05-27 14:19:00,83.8,56.9,30.23,South,180,3.8,6.0,40,0.00,,,0.00,pywws,2013-05-27 18:19:00,
2013-05-27 14:25:00,84.7,56.3,30.23,SW,225,3.1,6.0,38,0.00,,,0.00,pywws,2013-05-27 18:25:00,
2013-05-27 14:30:00,84.0,57.1,30.22,NW,315,3.8,8.3,40,0.00,,,0.00,pywws,2013-05-27 18:30:00,
2013-05-27 14:36:00,84.0,57.1,30.22,SE,135,6.0,9.2,40,0.00,,,0.00,pywws,2013-05-27 18:36:00,
2013-05-27 14:42:00,83.8,57.6,30.22,East,90,3.1,3.8,41,0.00,,,0.00,pywws,2013-05-27 18:42:00,
2013-05-27 14:47:00,85.3,56.0,30.22,SE,135,3.8,7.6,37,0.00,,,0.00,pywws,2013-05-27 18:47:00,
2013-05-27 14:53:00,84.6,56.8,30.22,SE,135,2.2,3.8,39,0.00,,,0.00,pywws,2013-05-27 18:53:00,
2013-05-27 14:58:00,85.3,57.5,30.22,North,0,3.1,6.0,39,0.00,,,0.00,pywws,2013-05-27 18:58:00,
2013-05-27 15:04:00,85.3,56.8,30.21,NE,45,4.5,7.6,38,0.00,,,0.00,pywws,2013-05-27 19:04:00,
2013-05-27 15:10:00,85.1,56.6,30.21,East,90,5.4,9.2,38,0.00,,,0.00,pywws,2013-05-27 19:10:00,
2013-05-27 15:15:00,84.9,56.4,30.21,South,180,2.2,3.8,38,0.00,,,0.00,pywws,2013-05-27 19:15:00,
2013-05-27 15:21:00,85.3,57.5,30.21,East,90,3.8,8.3,39,0.00,,,0.00,pywws,2013-05-27 19:21:00,
2013-05-27 15:26:00,86.5,58.6,30.21,SE,135,0.7,3.1,39,0.00,,,0.00,pywws,2013-05-27 19:26:00,
2013-05-27 15:32:00,87.6,57.3,30.20,East,90,2.2,5.4,36,0.00,,,0.00,pywws,2013-05-27 19:32:00,
2013-05-27 15:38:00,86.7,58.0,30.20,East,90,3.1,6.0,38,0.00,,,0.00,pywws,2013-05-27 19:38:00,
2013-05-27 15:43:00,87.3,58.5,30.21,East,90,3.8,8.3,38,0.00,,,0.00,pywws,2013-05-27 19:43:00,
2013-05-27 15:49:00,87.3,58.5,30.20,SE,135,1.6,2.2,38,0.00,,,0.00,pywws,2013-05-27 19:49:00,
2013-05-27 15:54:00,88.3,58.0,30.20,East,90,4.5,7.6,36,0.00,,,0.00,pywws,2013-05-27 19:54:00,
2013-05-27 16:02:00,87.6,58.8,30.19,SE,135,6.0,13.0,38,0.00,,,0.00,pywws,2013-05-27 20:02:00,
2013-05-27 16:07:00,87.6,58.8,30.20,SE,135,6.0,13.0,38,0.00,,,0.00,pywws,2013-05-27 20:07:00,
2013-05-27 16:13:00,84.9,57.2,30.20,NNE,22,3.8,6.9,39,0.00,,,0.00,pywws,2013-05-27 20:13:00,
2013-05-27 16:18:00,86.0,56.7,30.20,NE,45,8.3,14.5,37,0.00,,,0.00,pywws,2013-05-27 20:18:00,
2013-05-27 16:24:00,85.1,57.3,30.19,East,90,2.2,4.5,39,0.00,,,0.00,pywws,2013-05-27 20:24:00,
2013-05-27 16:30:00,86.0,57.4,30.19,East,90,3.8,6.0,38,0.00,,,0.00,pywws,2013-05-27 20:30:00,
2013-05-27 16:35:00,85.3,57.5,30.19,East,90,4.5,6.0,39,0.00,,,0.00,pywws,2013-05-27 20:35:00,
2013-05-27 16:41:00,84.4,56.7,30.19,NE,45,1.6,2.2,39,0.00,,,0.00,pywws,2013-05-27 20:41:00,
2013-05-27 16:46:00,84.9,57.2,30.19,South,180,3.8,6.9,39,0.00,,,0.00,pywws,2013-05-27 20:46:00,
2013-05-27 16:52:00,86.0,56.7,30.20,South,180,3.1,4.5,37,0.00,,,0.00,pywws,2013-05-27 20:52:00,
2013-05-27 16:58:00,85.1,55.9,30.19,North,0,3.8,6.0,37,0.00,,,0.00,pywws,2013-05-27 20:58:00,
2013-05-27 17:03:00,84.9,57.2,30.19,West,270,6.9,9.2,39,0.00,,,0.00,pywws,2013-05-27 21:03:00,
2013-05-27 17:09:00,85.1,55.9,30.19,South,180,3.1,5.4,37,0.00,,,0.00,pywws,2013-05-27 21:09:00,
2013-05-27 17:14:00,86.0,55.9,30.19,NE,45,3.8,6.0,36,0.00,,,0.00,pywws,2013-05-27 21:14:00,
2013-05-27 17:20:00,86.4,56.2,30.19,South,180,5.4,10.7,36,0.00,,,0.00,pywws,2013-05-27 21:20:00,
2013-05-27 17:26:00,86.0,55.1,30.19,WNW,292,3.1,3.8,35,0.00,,,0.00,pywws,2013-05-27 21:26:00,
2013-05-27 17:31:00,86.2,55.3,30.19,SE,135,3.8,8.3,35,0.00,,,0.00,pywws,2013-05-27 21:31:00,
2013-05-27 17:37:00,84.4,54.5,30.19,WNW,292,6.0,11.4,36,0.00,,,0.00,pywws,2013-05-27 21:37:00,
2013-05-27 17:42:00,84.0,56.4,30.19,SW,225,4.5,6.9,39,0.00,,,0.00,pywws,2013-05-27 21:42:00,
2013-05-27 17:48:00,84.2,55.8,30.18,SE,135,4.5,8.3,38,0.00,,,0.00,pywws,2013-05-27 21:48:00,
2013-05-27 17:54:00,85.1,56.6,30.18,East,90,3.1,6.0,38,0.00,,,0.00,pywws,2013-05-27 21:54:00,
2013-05-27 17:59:00,82.6,55.1,30.19,North,0,3.1,4.5,39,0.00,,,0.00,pywws,2013-05-27 21:59:00,
2013-05-27 18:05:00,81.0,55.0,30.19,NE,45,6.0,13.0,41,0.00,,,0.00,pywws,2013-05-27 22:05:00,
2013-05-27 18:10:00,79.3,54.9,30.19,ENE,68,3.1,6.9,43,0.00,,,0.00,pywws,2013-05-27 22:10:00,
2013-05-27 18:16:00,78.6,54.9,30.19,East,90,5.4,9.2,44,0.00,,,0.00,pywws,2013-05-27 22:16:00,
2013-05-27 18:22:00,78.1,54.4,30.19,North,0,3.1,4.5,44,0.00,,,0.00,pywws,2013-05-27 22:22:00,
2013-05-27 18:27:00,78.1,55.0,30.19,East,90,4.5,10.7,45,0.00,,,0.00,pywws,2013-05-27 22:27:00,
2013-05-27 18:33:00,77.5,54.5,30.19,NE,45,0.7,1.6,45,0.00,,,0.00,pywws,2013-05-27 22:33:00,
2013-05-27 18:38:00,77.9,54.8,30.19,NE,45,3.1,5.4,45,0.00,,,0.00,pywws,2013-05-27 22:38:00,
2013-05-27 18:44:00,78.1,55.0,30.19,East,90,1.6,3.8,45,0.00,,,0.00,pywws,2013-05-27 22:44:00,
2013-05-27 18:50:00,79.5,55.0,30.19,NE,45,5.4,8.3,43,0.00,,,0.00,pywws,2013-05-27 22:50:00,
2013-05-27 18:55:00,79.0,54.6,30.19,SE,135,3.1,4.5,43,0.00,,,0.00,pywws,2013-05-27 22:55:00,
2013-05-27 19:01:00,79.0,54.6,30.19,South,180,3.1,4.5,43,0.00,,,0.00,pywws,2013-05-27 23:01:00,
2013-05-27 19:06:00,79.5,55.0,30.19,SE,135,0.7,1.6,43,0.00,,,0.00,pywws,2013-05-27 23:06:00,
2013-05-27 19:12:00,78.6,54.9,30.19,SE,135,4.5,6.9,44,0.00,,,0.00,pywws,2013-05-27 23:12:00,
2013-05-27 19:18:00,77.4,53.7,30.19,NW,315,3.8,7.6,44,0.00,,,0.00,pywws,2013-05-27 23:18:00,
2013-05-27 19:24:00,76.3,54.6,30.19,North,0,3.1,6.9,47,0.00,,,0.00,pywws,2013-05-27 23:24:00,
2013-05-27 19:30:00,75.9,54.8,30.19,NNW,338,3.1,4.5,48,0.00,,,0.00,pywws,2013-05-27 23:30:00,
2013-05-27 19:35:00,75.6,54.5,30.19,East,90,5.4,8.3,48,0.00,,,0.00,pywws,2013-05-27 23:35:00,
2013-05-27 19:41:00,75.2,54.7,30.19,SE,135,6.0,8.3,49,0.00,,,0.00,pywws,2013-05-27 23:41:00,
2013-05-27 19:46:00,75.0,55.6,30.19,East,90,6.9,11.4,51,0.00,,,0.00,pywws,2013-05-27 23:46:00,
2013-05-27 19:52:00,74.7,55.9,30.19,SE,135,4.5,7.6,52,0.00,,,0.00,pywws,2013-05-27 23:52:00,
2013-05-27 19:58:00,74.5,55.7,30.19,South,180,3.8,5.4,52,0.00,,,0.00,pywws,2013-05-27 23:58:00,
2013-05-27 20:03:00,74.1,55.9,30.19,South,180,3.1,6.0,53,0.00,,,0.00,pywws,2013-05-28 00:03:00,
2013-05-27 20:09:00,73.9,55.7,30.18,SW,225,4.5,6.9,53,0.00,,,0.00,pywws,2013-05-28 00:09:00,
2013-05-27 20:14:00,73.6,55.9,30.18,SW,225,4.5,7.6,54,0.00,,,0.00,pywws,2013-05-28 00:14:00,
2013-05-27 20:20:00,73.4,55.7,30.18,East,90,3.1,4.5,54,0.00,,,0.00,pywws,2013-05-28 00:20:00,
2013-05-27 20:26:00,73.2,55.6,30.18,East,90,6.0,10.7,54,0.00,,,0.00,pywws,2013-05-28 00:26:00,
2013-05-27 20:31:00,73.0,55.4,30.18,NE,45,2.2,4.5,54,0.00,,,0.00,pywws,2013-05-28 00:31:00,
2013-05-27 20:37:00,72.7,55.6,30.19,South,180,1.6,4.5,55,0.00,,,0.00,pywws,2013-05-28 00:37:00,
2013-05-27 20:42:00,72.5,55.4,30.19,NE,45,3.1,6.0,55,0.00,,,0.00,pywws,2013-05-28 00:42:00,
2013-05-27 20:49:00,72.1,55.6,30.19,NE,45,3.1,5.4,56,0.00,,,0.00,pywws,2013-05-28 00:49:00,
2013-05-27 20:54:00,72.0,55.4,30.19,SE,135,3.1,6.9,56,0.00,,,0.00,pywws,2013-05-28 00:54:00,
2013-05-27 21:00:00,71.8,55.7,30.19,East,90,1.6,3.1,57,0.00,,,0.00,pywws,2013-05-28 01:00:00,
2013-05-27 21:06:00,71.6,55.5,30.19,East,90,3.1,4.5,57,0.00,,,0.00,pywws,2013-05-28 01:06:00,
2013-05-27 21:11:00,71.4,56.3,30.20,SE,135,3.1,6.9,59,0.00,,,0.00,pywws,2013-05-28 01:11:00,
2013-05-27 21:17:00,71.4,56.3,30.20,NE,45,4.5,7.6,59,0.00,,,0.00,pywws,2013-05-28 01:17:00,
2013-05-27 21:22:00,71.2,56.6,30.20,East,90,3.1,5.4,60,0.00,,,0.00,pywws,2013-05-28 01:22:00,
2013-05-27 21:28:00,71.1,56.5,30.20,East,90,3.8,8.3,60,0.00,,,0.00,pywws,2013-05-28 01:28:00,
2013-05-27 21:34:00,70.9,56.3,30.21,NE,45,0.7,1.6,60,0.00,,,0.00,pywws,2013-05-28 01:34:00,
2013-05-27 21:39:00,70.5,56.4,30.21,East,90,2.2,3.8,61,0.00,,,0.00,pywws,2013-05-28 01:39:00,
2013-05-27 21:45:00,70.3,56.7,30.21,East,90,0.7,1.6,62,0.00,,,0.00,pywws,2013-05-28 01:45:00,
2013-05-27 21:50:00,70.2,56.5,30.21,East,90,0.7,2.2,62,0.00,,,0.00,pywws,2013-05-28 01:50:00,
2013-05-27 21:56:00,69.8,56.2,30.22,NE,45,3.8,5.4,62,0.00,,,0.00,pywws,2013-05-28 01:56:00,
2013-05-27 22:02:00,69.6,56.5,30.22,East,90,2.2,3.1,63,0.00,,,0.00,pywws,2013-05-28 02:02:00,
2013-05-27 22:07:00,69.6,56.9,30.22,South,180,1.6,3.8,64,0.00,,,0.00,pywws,2013-05-28 02:07:00,
2013-05-27 22:13:00,69.4,56.3,30.22,East,90,1.6,3.1,63,0.00,,,0.00,pywws,2013-05-28 02:13:00,
2013-05-27 22:18:00,69.3,56.6,30.22,SW,225,0.0,0.7,64,0.00,,,0.00,pywws,2013-05-28 02:18:00,
2013-05-27 22:24:00,69.1,56.4,30.22,SE,135,0.0,0.7,64,0.00,,,0.00,pywws,2013-05-28 02:24:00,
2013-05-27 22:32:00,68.9,56.2,30.22,South,180,0.7,3.1,64,0.00,,,0.00,pywws,2013-05-28 02:32:00,
2013-05-27 22:38:00,68.7,56.5,30.23,West,270,0.0,1.6,65,0.00,,,0.00,pywws,2013-05-28 02:38:00,
2013-05-27 22:43:00,68.5,56.3,30.23,SE,135,0.7,1.6,65,0.00,,,0.00,pywws,2013-05-28 02:43:00,
2013-05-27 22:49:00,68.4,56.6,30.23,South,180,0.7,2.2,66,0.00,,,0.00,pywws,2013-05-28 02:49:00,
2013-05-27 22:54:00,68.0,56.2,30.23,East,90,0.0,1.6,66,0.00,,,0.00,pywws,2013-05-28 02:54:00,
2013-05-27 23:00:00,67.6,56.3,30.23,NE,45,0.0,0.7,67,0.00,,,0.00,pywws,2013-05-28 03:00:00,
2013-05-27 23:06:00,67.5,56.1,30.23,SE,135,1.6,2.2,67,0.00,,,0.00,pywws,2013-05-28 03:06:00,
2013-05-27 23:11:00,67.1,56.6,30.23,SE,135,0.7,2.2,69,0.00,,,0.00,pywws,2013-05-28 03:11:00,
2013-05-27 23:17:00,66.9,56.4,30.23,SW,225,0.0,1.6,69,0.00,,,0.00,pywws,2013-05-28 03:17:00,
2013-05-27 23:22:00,66.6,56.5,30.23,SE,135,0.0,0.0,70,0.00,,,0.00,pywws,2013-05-28 03:22:00,
2013-05-27 23:28:00,66.4,56.7,30.23,South,180,0.0,0.7,71,0.00,,,0.00,pywws,2013-05-28 03:28:00,
2013-05-27 23:34:00,66.0,56.7,30.23,SW,225,1.6,2.2,72,0.00,,,0.00,pywws,2013-05-28 03:34:00,
2013-05-27 23:39:00,66.0,56.7,30.23,South,180,0.0,0.7,72,0.00,,,0.00,pywws,2013-05-28 03:39:00,
2013-05-27 23:45:00,66.0,56.7,30.23,SW,225,0.0,0.7,72,0.00,,,0.00,pywws,2013-05-28 03:45:00,
2013-05-27 23:51:00,65.7,56.8,30.24,SW,225,1.6,2.2,73,0.00,,,0.00,pywws,2013-05-28 03:51:00,
2013-05-27 23:58:00,65.3,56.4,30.23,SE,135,0.7,2.2,73,0.00,,,0.00,pywws,2013-05-28 03:58:00,